ENBE weather

Balder A Platform
Norway

Public forecast

Using degrees Celsius for public forecast. Weather courtesy of forecast.io.

METAR (pilot weather report)

Closest report is Ula Platform, 15.8 nm (29.2 km) ESE. Retrieved 2019/05/21 11:20 UTC (39 minutes ago):

ENLA 211120Z AUTO 31017KT 9999NDV SCT008/// BKN091/// 13/10 Q1013 W///S3

TAF (pilot weather forecast)

Closest forecast is Oseberg A Platform, 79.4 nm (147.0 km) N. Retrieved 2019/05/21 09:57 UTC (2 hours ago):

TAF TAF ENOA 210800Z 2109/2209 36020KT 0100 FG VV001 TEMPO 2109/2203 6000 SCT003 TEMPO 2203/2209 4000 SHRA BKN008 FEW030CB